createdAt,value
2018-11-20T00:00:00.156Z,7.37
2018-11-20T00:04:26.501Z,8.60
2018-11-20T00:08:54.042Z,8.17
2018-11-20T00:13:33.604Z,8.80
2018-11-20T00:17:58.432Z,9.30
2018-11-20T00:22:27.105Z,8.83
2018-11-20T00:26:52.350Z,9.47
2018-11-20T00:31:19.514Z,8.10
2018-11-20T00:35:51.700Z,8.88
2018-11-20T00:40:38.304Z,8.73
2018-11-20T00:45:14.783Z,9.30
2018-11-20T00:49:42.987Z,8.87
2018-11-20T00:54:19.069Z,9.13
2018-11-20T00:58:55.495Z,9.68
2018-11-20T01:03:34.947Z,9.83
2018-11-20T01:08:09.594Z,10.77
2018-11-20T01:12:38.394Z,9.83
2018-11-20T01:17:10.725Z,12.10
2018-11-20T01:21:49.767Z,12.77
2018-11-20T01:26:22.359Z,10.13
2018-11-20T01:30:52.816Z,11.48
2018-11-20T01:35:21.873Z,13.70
2018-11-20T01:39:54.099Z,12.70
2018-11-20T01:44:40.293Z,12.57
2018-11-20T01:49:20.181Z,13.75
2018-11-20T01:53:49.761Z,14.60
2018-11-20T01:58:33.557Z,13.37
2018-11-20T02:03:07.062Z,14.30
2018-11-20T02:07:40.860Z,13.40
2018-11-20T02:12:10.535Z,14.93
2018-11-20T02:17:03.952Z,15.10
2018-11-20T02:21:41.680Z,13.40
2018-11-20T02:26:12.554Z,15.07
2018-11-20T02:30:46.598Z,15.15
2018-11-20T02:35:09.291Z,15.27
2018-11-20T02:39:55.991Z,13.38
2018-11-20T02:44:15.074Z,13.77
2018-11-20T02:48:40.471Z,14.65
2018-11-20T02:53:26.926Z,14.87
2018-11-20T02:57:59.957Z,13.63
2018-11-20T03:02:28.071Z,13.43
2018-11-20T03:06:55.645Z,15.13
2018-11-20T03:11:28.359Z,13.23
2018-11-20T03:15:59.018Z,12.23
2018-11-20T03:20:47.299Z,12.90
2018-11-20T03:25:21.882Z,12.47
2018-11-20T03:30:51.646Z,12.50
2018-11-20T03:40:22.947Z,11.47
2018-11-20T03:44:51.952Z,11.43
2018-11-20T03:49:21.167Z,13.27
2018-11-20T03:53:54.432Z,11.80
2018-11-20T03:58:31.133Z,13.43
2018-11-20T04:03:05.513Z,12.50
2018-11-20T04:07:33.899Z,13.30
2018-11-20T04:12:22.557Z,13.97
2018-11-20T04:17:00.508Z,13.83
2018-11-20T04:21:31.227Z,13.90
2018-11-20T04:26:16.151Z,15.87
2018-11-20T04:31:16.708Z,13.48
2018-11-20T04:35:49.556Z,13.72
2018-11-20T04:40:20.150Z,18.40
2018-11-20T04:44:56.605Z,12.63
2018-11-20T04:49:25.002Z,13.40
2018-11-20T04:54:03.401Z,12.67
2018-11-20T04:58:48.504Z,20.00
2018-11-20T05:03:17.582Z,13.93
2018-11-20T05:07:46.108Z,14.43
2018-11-20T05:12:17.594Z,15.17
2018-11-20T05:16:44.525Z,14.73
2018-11-20T05:21:19.034Z,14.70
2018-11-20T05:25:47.254Z,15.28
2018-11-20T05:30:11.391Z,15.67
2018-11-20T05:34:43.020Z,15.37
2018-11-20T05:39:12.876Z,14.00
2018-11-20T05:43:55.465Z,14.95
2018-11-20T05:48:45.371Z,13.00
2018-11-20T05:53:05.234Z,15.00
2018-11-20T05:57:35.881Z,15.97
2018-11-20T06:02:00.580Z,17.20
2018-11-20T06:06:33.450Z,15.80
2018-11-20T06:11:13.408Z,15.87
2018-11-20T06:15:50.709Z,15.50
2018-11-20T06:20:18.269Z,17.10
2018-11-20T06:24:44.448Z,14.53
2018-11-20T06:29:16.298Z,16.23
2018-11-20T06:33:49.851Z,17.40
2018-11-20T06:38:25.079Z,18.37
2018-11-20T06:43:12.729Z,18.10
2018-11-20T06:47:40.427Z,16.20
2018-11-20T06:52:11.263Z,16.77
2018-11-20T06:57:08.471Z,18.03
2018-11-20T07:01:39.554Z,19.65
2018-11-20T07:06:29.947Z,18.63
2018-11-20T07:11:03.380Z,18.50
2018-11-20T07:15:33.279Z,18.17
2018-11-20T07:20:11.351Z,18.83
2018-11-20T07:24:47.090Z,17.85
2018-11-20T07:29:22.417Z,20.53
2018-11-20T07:33:55.453Z,20.10
2018-11-20T07:38:35.993Z,19.27
2018-11-20T07:43:21.146Z,20.47
2018-11-20T07:47:48.652Z,21.33
2018-11-20T07:52:24.787Z,22.20
2018-11-20T07:56:54.191Z,21.87
2018-11-20T08:01:23.219Z,22.50
2018-11-20T08:06:02.723Z,22.67
2018-11-20T08:10:48.913Z,22.17
2018-11-20T08:15:23.684Z,26.10
2018-11-20T08:19:50.195Z,24.73
2018-11-20T08:24:19.410Z,26.90
2018-11-20T08:28:46.728Z,26.77
2018-11-20T08:33:16.871Z,26.43
2018-11-20T08:38:08.138Z,28.27
2018-11-20T08:42:50.249Z,25.90
2018-11-20T08:47:23.591Z,27.67
2018-11-20T08:51:53.501Z,28.37
2018-11-20T08:56:19.603Z,26.17
2018-11-20T09:01:08.730Z,24.43
2018-11-20T09:05:50.884Z,23.22
2018-11-20T09:10:22.782Z,25.67
2018-11-20T09:14:56.520Z,26.73
2018-11-20T09:19:28.888Z,24.87
2018-11-20T09:24:10.434Z,26.40
2018-11-20T09:28:49.686Z,29.23
2018-11-20T09:33:19.481Z,25.17
2018-11-20T09:37:53.548Z,24.53
2018-11-20T09:42:23.773Z,25.67
2018-11-20T09:46:54.729Z,25.23
2018-11-20T09:51:27.109Z,24.97
2018-11-20T09:55:55.117Z,24.13
2018-11-20T10:00:24.913Z,23.20
2018-11-20T10:05:01.353Z,27.80
2018-11-20T10:09:48.105Z,26.57
2018-11-20T10:14:20.463Z,26.63
2018-11-20T10:18:55.509Z,27.93
2018-11-20T10:23:39.105Z,28.37
2018-11-20T10:28:14.422Z,25.43
2018-11-20T10:32:51.847Z,23.52
2018-11-20T10:37:28.646Z,25.70
2018-11-20T10:42:02.599Z,26.90
2018-11-20T10:46:30.277Z,28.67
2018-11-20T10:51:11.024Z,22.00
2018-11-20T10:55:52.732Z,26.33
2018-11-20T11:00:23.184Z,26.33
2018-11-20T11:04:56.790Z,26.20
2018-11-20T11:09:25.069Z,24.40
2018-11-20T11:14:04.459Z,24.50
2018-11-20T11:18:35.224Z,25.03
2018-11-20T11:23:00.411Z,25.00
2018-11-20T11:27:30.287Z,27.33
2018-11-20T11:32:09.252Z,25.27
2018-11-20T11:36:42.476Z,26.25
2018-11-20T11:41:18.772Z,27.90
2018-11-20T11:46:05.301Z,27.37
2018-11-20T11:50:45.413Z,26.37
2018-11-20T11:55:12.804Z,25.57
2018-11-20T11:59:41.899Z,24.20
2018-11-20T12:04:14.956Z,25.07
2018-11-20T12:08:53.049Z,22.73
2018-11-20T12:13:26.833Z,22.60
2018-11-20T12:18:20.834Z,27.77
2018-11-20T12:22:44.470Z,24.82
2018-11-20T12:27:12.867Z,26.47
2018-11-20T12:31:40.694Z,27.87
2018-11-20T12:36:12.322Z,25.60
2018-11-20T12:40:54.277Z,25.57
2018-11-20T12:45:27.415Z,26.63
2018-11-20T12:50:15.421Z,25.83
2018-11-20T12:54:52.286Z,26.70
2018-11-20T12:59:34.861Z,25.63
2018-11-20T13:04:04.800Z,24.40
2018-11-20T13:08:41.103Z,24.23
2018-11-20T13:13:24.335Z,24.70
2018-11-20T13:17:58.627Z,27.07
2018-11-20T13:22:31.142Z,30.30
2018-11-20T13:27:12.403Z,24.27
2018-11-20T13:32:04.609Z,25.68
2018-11-20T13:36:37.833Z,25.13
2018-11-20T13:41:42.267Z,27.53
2018-11-20T13:46:09.418Z,31.47
2018-11-20T13:50:37.450Z,24.33
2018-11-20T13:55:08.054Z,27.00
2018-11-20T13:59:48.211Z,25.97
2018-11-20T14:04:27.197Z,26.30
2018-11-20T14:08:56.983Z,26.10
2018-11-20T14:13:31.635Z,25.57
2018-11-20T14:18:12.689Z,27.87
2018-11-20T14:22:58.639Z,30.13
2018-11-20T14:27:19.920Z,27.20
2018-11-20T14:32:07.088Z,30.63
2018-11-20T14:36:50.409Z,30.23
2018-11-20T14:41:18.556Z,25.90
2018-11-20T14:45:45.156Z,31.95
2018-11-20T14:50:17.633Z,33.63
2018-11-20T14:54:45.662Z,30.10
2018-11-20T14:59:22.672Z,28.77
2018-11-20T15:03:55.690Z,29.23
2018-11-20T15:08:27.153Z,26.40
2018-11-20T15:12:57.893Z,28.87
2018-11-20T15:17:26.433Z,27.43
2018-11-20T15:22:04.841Z,27.33
2018-11-20T15:26:35.632Z,26.60
2018-11-20T15:31:12.540Z,28.53
2018-11-20T15:35:42.447Z,29.80
2018-11-20T15:40:16.181Z,28.63
2018-11-20T15:44:48.974Z,28.02
2018-11-20T15:49:20.557Z,27.73
2018-11-20T15:53:51.298Z,28.37
2018-11-20T15:58:22.644Z,28.43
2018-11-20T16:02:53.489Z,29.30
2018-11-20T16:07:39.147Z,27.07
2018-11-20T16:12:21.788Z,30.40
2018-11-20T16:17:16.832Z,26.43
2018-11-20T16:21:39.962Z,24.50
2018-11-20T16:26:18.528Z,29.67
2018-11-20T16:30:50.018Z,23.00
2018-11-20T16:35:18.743Z,27.17
2018-11-20T16:39:43.944Z,25.00
2018-11-20T16:44:15.583Z,29.60
2018-11-20T16:48:56.581Z,27.05
2018-11-20T16:53:31.588Z,25.77
2018-11-20T16:58:04.407Z,24.63
2018-11-20T17:02:52.205Z,25.68
2018-11-20T17:07:28.815Z,26.10
2018-11-20T17:11:53.514Z,23.00
2018-11-20T17:16:21.964Z,26.40
2018-11-20T17:21:02.961Z,19.90
2018-11-20T17:25:45.888Z,21.57
2018-11-20T17:30:14.939Z,22.33
2018-11-20T17:34:48.804Z,22.10
2018-11-20T17:40:29.996Z,19.85
2018-11-20T17:44:54.893Z,21.07
2018-11-20T17:49:41.962Z,20.67
2018-11-20T17:54:08.715Z,19.30
2018-11-20T17:58:47.420Z,22.20
2018-11-20T18:03:37.358Z,22.60
2018-11-20T18:08:06.484Z,22.10
2018-11-20T18:12:44.193Z,22.00
2018-11-20T18:17:20.778Z,22.87
2018-11-20T18:21:56.490Z,23.27
2018-11-20T18:26:27.975Z,23.03
2018-11-20T18:36:01.272Z,20.20
2018-11-20T18:40:44.441Z,20.47
2018-11-20T18:45:25.241Z,22.17
2018-11-20T18:50:21.974Z,23.03
2018-11-20T18:55:10.726Z,24.72
2018-11-20T18:59:40.781Z,22.00
2018-11-20T19:04:16.770Z,22.27
2018-11-20T19:08:41.999Z,19.90
2018-11-20T19:13:20.563Z,24.10
2018-11-20T19:18:00.437Z,22.77
2018-11-20T19:22:34.594Z,22.55
2018-11-20T19:27:18.678Z,21.77
2018-11-20T19:32:08.783Z,22.85
2018-11-20T19:36:33.693Z,24.70
2018-11-20T19:41:05.009Z,22.30
2018-11-20T19:45:28.011Z,22.05
2018-11-20T19:49:55.562Z,22.13
2018-11-20T19:54:35.235Z,21.67
2018-11-20T19:59:29.770Z,21.03
2018-11-20T20:04:08.369Z,22.30
2018-11-20T20:08:29.738Z,23.37
2018-11-20T20:13:07.856Z,22.70
2018-11-20T20:17:50.561Z,21.20
2018-11-20T20:22:19.622Z,22.17
2018-11-20T20:27:01.777Z,23.63
2018-11-20T20:31:29.060Z,21.90
2018-11-20T20:36:11.220Z,21.97
2018-11-20T20:40:34.809Z,24.60
2018-11-20T20:45:20.382Z,22.67
2018-11-20T20:50:13.210Z,23.43
2018-11-20T20:54:42.980Z,24.40
2018-11-20T20:59:20.270Z,24.10
2018-11-20T21:03:45.119Z,24.87
2018-11-20T21:08:12.533Z,24.03
2018-11-20T21:12:43.857Z,24.45
2018-11-20T21:17:19.579Z,23.73
2018-11-20T21:21:47.233Z,24.10
2018-11-20T21:26:33.508Z,26.47
2018-11-20T21:31:06.082Z,25.67
2018-11-20T21:35:50.504Z,25.23
2018-11-20T21:40:22.224Z,23.93
2018-11-20T21:44:57.094Z,24.97
2018-11-20T21:49:28.698Z,25.30
2018-11-20T21:54:09.088Z,27.83
2018-11-20T21:58:34.992Z,26.35
2018-11-20T22:03:02.833Z,26.33
2018-11-20T22:07:47.521Z,28.27
2018-11-20T22:12:23.635Z,25.73
2018-11-20T22:17:06.733Z,28.97
2018-11-20T22:21:37.272Z,26.60
2018-11-20T22:26:06.081Z,25.57
2018-11-20T22:30:34.451Z,24.67
2018-11-20T22:35:18.347Z,28.33
2018-11-20T22:39:49.148Z,27.53
2018-11-20T22:44:28.295Z,28.77
2018-11-20T22:49:03.688Z,28.47
2018-11-20T22:53:47.206Z,28.17
2018-11-20T22:58:14.792Z,30.63
2018-11-20T23:02:39.641Z,32.78
2018-11-20T23:07:18.911Z,30.03
2018-11-20T23:11:30.246Z,34.27
2018-11-20T23:15:45.576Z,31.97
2018-11-20T23:20:01.026Z,35.27
2018-11-20T23:24:13.475Z,33.08
2018-11-20T23:28:27.000Z,31.27
2018-11-20T23:32:39.884Z,35.57
2018-11-20T23:37:04.984Z,31.37
2018-11-20T23:41:16.093Z,34.83
2018-11-20T23:45:29.558Z,37.07
2018-11-20T23:49:42.533Z,35.03
2018-11-20T23:53:52.575Z,31.70
2018-11-20T23:58:03.921Z,34.70
